createdAt,value
2019-01-28T00:00:46.000Z,979.569
2019-01-28T00:10:47.000Z,979.503
2019-01-28T00:20:46.000Z,979.492
2019-01-28T00:30:46.000Z,979.422
2019-01-28T00:40:46.000Z,979.384
2019-01-28T00:50:46.000Z,979.328
2019-01-28T01:00:46.000Z,979.351
2019-01-28T01:10:46.000Z,979.34
2019-01-28T01:20:46.000Z,979.3
2019-01-28T01:30:46.000Z,979.251
2019-01-28T01:40:46.000Z,979.178
2019-01-28T01:50:46.000Z,979.117
2019-01-28T02:00:46.000Z,979.071
2019-01-28T02:10:46.000Z,978.963
2019-01-28T02:20:46.000Z,978.835
2019-01-28T02:30:46.000Z,978.687
2019-01-28T02:40:46.000Z,978.689
2019-01-28T02:50:46.000Z,978.649
2019-01-28T03:00:46.000Z,978.553
2019-01-28T03:10:46.000Z,978.468
2019-01-28T03:20:46.000Z,978.392
2019-01-28T03:30:46.000Z,978.305
2019-01-28T03:40:46.000Z,978.3
2019-01-28T03:50:46.000Z,978.289
2019-01-28T04:00:46.000Z,978.217
2019-01-28T04:10:46.000Z,978.197
2019-01-28T04:20:46.000Z,978.151
2019-01-28T04:30:47.000Z,978.142
2019-01-28T04:40:46.000Z,978.123
2019-01-28T04:50:47.000Z,978.081
2019-01-28T05:00:47.000Z,978.1
2019-01-28T05:10:47.000Z,978.047
2019-01-28T05:20:47.000Z,978.092
2019-01-28T05:30:47.000Z,978.057
2019-01-28T05:40:47.000Z,978.003
2019-01-28T05:50:47.000Z,977.978
2019-01-28T06:00:47.000Z,978.013
2019-01-28T06:10:47.000Z,978.043
2019-01-28T06:20:47.000Z,978.074
2019-01-28T06:30:47.000Z,978.069
2019-01-28T06:40:47.000Z,978.136
2019-01-28T06:50:47.000Z,978.162
2019-01-28T07:00:47.000Z,978.198
2019-01-28T07:10:47.000Z,978.263
2019-01-28T07:20:47.000Z,978.372
2019-01-28T07:30:47.000Z,978.444
2019-01-28T07:40:47.000Z,978.632
2019-01-28T07:50:47.000Z,978.746
2019-01-28T08:00:47.000Z,978.828
2019-01-28T08:10:49.000Z,978.941
2019-01-28T08:20:47.000Z,979.093
2019-01-28T08:30:47.000Z,979.173
2019-01-28T08:40:47.000Z,979.255
2019-01-28T08:50:47.000Z,979.444
2019-01-28T09:00:47.000Z,979.674
2019-01-28T09:10:47.000Z,979.898
2019-01-28T09:20:47.000Z,980.083
2019-01-28T09:30:47.000Z,980.391
2019-01-28T09:40:47.000Z,980.626
2019-01-28T09:50:47.000Z,980.854
2019-01-28T10:00:48.000Z,981.147
2019-01-28T10:10:47.000Z,981.36
2019-01-28T10:20:47.000Z,981.577
2019-01-28T10:30:47.000Z,981.737
2019-01-28T10:40:47.000Z,981.897
2019-01-28T10:50:47.000Z,982.134
2019-01-28T11:00:47.000Z,982.227
2019-01-28T11:10:47.000Z,982.369
2019-01-28T11:20:47.000Z,982.52
2019-01-28T11:30:47.000Z,982.74
2019-01-28T11:40:47.000Z,982.938
2019-01-28T11:50:47.000Z,983.122
2019-01-28T12:00:47.000Z,983.232
2019-01-28T12:10:47.000Z,983.395
2019-01-28T12:20:47.000Z,983.66
2019-01-28T12:30:47.000Z,983.863
2019-01-28T12:40:47.000Z,984.065
2019-01-28T12:50:47.000Z,984.28
2019-01-28T13:00:48.000Z,984.505
2019-01-28T13:10:48.000Z,984.812
2019-01-28T13:20:48.000Z,985.072
2019-01-28T13:30:48.000Z,985.32
2019-01-28T13:40:48.000Z,985.531
2019-01-28T13:50:48.000Z,985.803
2019-01-28T14:00:48.000Z,986.075
2019-01-28T14:10:48.000Z,986.337
2019-01-28T14:20:48.000Z,986.559
2019-01-28T14:30:48.000Z,986.896
2019-01-28T14:40:48.000Z,987.218
2019-01-28T14:50:48.000Z,987.491
2019-01-28T15:00:48.000Z,987.762
2019-01-28T15:10:48.000Z,987.984
2019-01-28T15:20:48.000Z,988.268
2019-01-28T15:30:48.000Z,988.58
2019-01-28T15:40:48.000Z,988.827
2019-01-28T15:50:48.000Z,989.093
2019-01-28T16:00:48.000Z,989.376
2019-01-28T16:10:48.000Z,989.512
2019-01-28T16:20:48.000Z,989.797
2019-01-28T16:30:48.000Z,990.077
2019-01-28T16:40:48.000Z,990.281
2019-01-28T16:50:48.000Z,990.557
2019-01-28T17:00:48.000Z,990.711
2019-01-28T17:10:48.000Z,990.921
2019-01-28T17:20:48.000Z,991.139
2019-01-28T17:30:48.000Z,991.342
2019-01-28T17:40:48.000Z,991.508
2019-01-28T17:50:48.000Z,991.695
2019-01-28T18:00:48.000Z,991.959
2019-01-28T18:10:48.000Z,992.19
2019-01-28T18:20:48.000Z,992.327
2019-01-28T18:30:48.000Z,992.446
2019-01-28T18:40:48.000Z,992.618
2019-01-28T18:50:48.000Z,992.778
2019-01-28T19:00:48.000Z,992.905
2019-01-28T19:10:48.000Z,993.03
2019-01-28T19:20:48.000Z,993.182
2019-01-28T19:30:48.000Z,993.26
2019-01-28T19:40:49.000Z,993.37
2019-01-28T19:50:52.000Z,993.507
2019-01-28T20:00:48.000Z,993.553
2019-01-28T20:10:48.000Z,993.858
2019-01-28T20:20:49.000Z,993.956
2019-01-28T20:30:48.000Z,994.089
2019-01-28T20:40:48.000Z,994.205
2019-01-28T20:50:48.000Z,994.409
2019-01-28T21:00:48.000Z,994.565
2019-01-28T21:10:52.000Z,994.776
2019-01-28T21:20:50.000Z,994.85
2019-01-28T21:30:49.000Z,994.896
2019-01-28T21:40:49.000Z,995.086
2019-01-28T21:50:49.000Z,995.102
2019-01-28T22:00:49.000Z,995.201
2019-01-28T22:10:49.000Z,995.238
2019-01-28T22:20:49.000Z,995.355
2019-01-28T22:30:49.000Z,995.44
2019-01-28T22:40:49.000Z,995.484
2019-01-28T22:50:49.000Z,995.62
2019-01-28T23:00:49.000Z,995.724
2019-01-28T23:10:49.000Z,995.796
2019-01-28T23:20:49.000Z,995.853
2019-01-28T23:30:51.000Z,995.942
2019-01-28T23:40:50.000Z,996.048
2019-01-28T23:50:49.000Z,996.165
